Time;durP1;ratioP1;P1;durP2;ratioP2;P2;SDS_P1;SDS_P2;PMS_P1;PMS_P2;Temp;Humidity;BMP_temperature;BMP_pressure;BME280_temperature;BME280_humidity;BME280_pressure;Samples;Min_cycle;Max_cycle;Signal;HPM_P1;HPM_P2
2023/08/30 00:01:02;;;;;;;14.50;11.60;;;17.30;99.90;;;;;;4989078;28;20557;-66
2023/08/30 00:03:29;;;;;;;14.67;11.43;;;17.30;99.90;;;;;;4994170;28;20569;-66
2023/08/30 00:05:56;;;;;;;15.50;12.30;;;17.30;99.90;;;;;;4992098;28;20556;-66
2023/08/30 00:08:23;;;;;;;19.33;13.63;;;17.40;99.90;;;;;;4991244;28;20580;-65
2023/08/30 00:10:50;;;;;;;20.60;11.70;;;17.30;99.90;;;;;;4992149;28;20588;-66
2023/08/30 00:13:18;;;;;;;14.43;11.57;;;17.30;99.90;;;;;;4977088;28;20606;-66
2023/08/30 00:15:45;;;;;;;14.57;11.10;;;17.30;99.90;;;;;;4994359;28;20543;-66
2023/08/30 00:18:12;;;;;;;15.10;11.10;;;17.40;99.90;;;;;;4985248;28;20561;-66
2023/08/30 00:20:39;;;;;;;13.30;10.20;;;17.50;99.90;;;;;;4999674;28;20943;-66
2023/08/30 00:23:06;;;;;;;16.50;10.77;;;17.60;99.90;;;;;;4986492;28;20487;-66
2023/08/30 00:25:33;;;;;;;13.83;10.33;;;17.70;99.90;;;;;;4987503;28;20969;-66
2023/08/30 00:27:59;;;;;;;10.37;8.93;;;17.80;99.90;;;;;;4995234;28;21249;-66
2023/08/30 00:30:28;;;;;;;15.30;10.07;;;17.80;99.90;;;;;;4984744;28;20569;-66
2023/08/30 00:32:54;;;;;;;10.60;9.27;;;17.80;99.90;;;;;;4986436;28;21660;-66
2023/08/30 00:35:21;;;;;;;13.20;9.20;;;17.80;99.90;;;;;;4986660;28;20570;-66
2023/08/30 00:37:48;;;;;;;14.30;10.57;;;17.80;99.90;;;;;;4996391;28;20551;-66
2023/08/30 00:40:16;;;;;;;16.67;9.63;;;17.80;99.90;;;;;;4989296;28;20573;-66
2023/08/30 00:42:43;;;;;;;14.67;10.77;;;17.80;99.90;;;;;;4991938;28;20848;-66
2023/08/30 00:45:10;;;;;;;12.40;9.77;;;17.80;99.90;;;;;;4996073;28;20569;-66
2023/08/30 00:47:39;;;;;;;13.60;10.40;;;17.80;99.90;;;;;;4981964;28;20830;-66
2023/08/30 00:50:07;;;;;;;20.50;10.40;;;17.80;99.90;;;;;;4987662;28;20581;-66
2023/08/30 00:52:34;;;;;;;12.07;9.10;;;17.70;99.90;;;;;;4989568;28;21253;-66
2023/08/30 00:55:01;;;;;;;12.60;9.43;;;17.70;99.90;;;;;;4990873;28;20561;-66
2023/08/30 00:57:28;;;;;;;12.00;8.70;;;17.70;99.90;;;;;;4988424;28;20569;-66
2023/08/30 00:59:56;;;;;;;11.63;9.10;;;17.60;99.90;;;;;;4984085;28;20479;-66
2023/08/30 01:02:23;;;;;;;13.53;9.73;;;17.60;99.90;;;;;;5000596;28;20563;-66
2023/08/30 01:04:53;;;;;;;11.80;8.67;;;17.60;99.90;;;;;;4986655;28;20492;-66
2023/08/30 01:07:20;;;;;;;11.97;8.60;;;17.60;99.90;;;;;;4985611;28;20492;-66
2023/08/30 01:09:47;;;;;;;10.60;8.40;;;17.60;99.90;;;;;;4989933;28;20844;-65
2023/08/30 01:12:21;;;;;;;11.40;8.70;;;17.60;99.90;;;;;;4990461;28;20551;-65
2023/08/30 01:14:54;;;;;;;11.43;9.27;;;17.60;99.90;;;;;;4990947;28;20479;-65
2023/08/30 01:17:23;;;;;;;10.73;8.70;;;17.60;99.90;;;;;;4975028;28;20474;-66
2023/08/30 01:19:56;;;;;;;9.13;8.17;;;17.60;99.90;;;;;;4987644;28;20500;-66
2023/08/30 01:22:44;;;;;;;11.20;8.57;;;17.50;99.90;;;;;;4999451;28;21007;-65
2023/08/30 01:25:21;;;;;;;9.10;8.20;;;17.50;99.90;;;;;;4994575;28;20473;-65
2023/08/30 01:27:51;;;;;;;12.33;9.70;;;17.30;99.90;;;;;;4989443;28;21197;-65
2023/08/30 01:30:19;;;;;;;9.70;8.60;;;17.20;99.90;;;;;;4990620;28;20838;-65
2023/08/30 01:32:47;;;;;;;8.30;7.40;;;17.10;99.90;;;;;;4987454;28;20473;-65
2023/08/30 01:35:17;;;;;;;11.80;8.60;;;17.00;99.90;;;;;;5000488;28;20474;-65
2023/08/30 01:37:45;;;;;;;10.63;8.40;;;17.00;99.90;;;;;;4994339;28;20480;-65
2023/08/30 01:40:13;;;;;;;12.03;8.43;;;17.10;99.90;;;;;;4988229;28;20493;-65
2023/08/30 01:42:41;;;;;;;9.97;8.67;;;17.10;99.90;;;;;;4989018;28;20482;-65
2023/08/30 01:45:13;;;;;;;10.90;8.60;;;17.00;99.90;;;;;;4988325;28;20496;-65
2023/08/30 01:47:41;;;;;;;9.73;7.97;;;17.00;99.90;;;;;;4994071;28;20469;-65
2023/08/30 01:50:11;;;;;;;9.30;7.80;;;17.00;99.90;;;;;;4993067;28;20863;-65
2023/08/30 01:52:39;;;;;;;9.10;7.90;;;17.00;99.90;;;;;;4984270;28;20478;-65
2023/08/30 01:55:08;;;;;;;9.43;7.47;;;16.90;99.90;;;;;;4987250;28;20476;-65
2023/08/30 01:57:35;;;;;;;11.07;8.20;;;17.00;99.90;;;;;;4998865;28;20491;-65
2023/08/30 02:00:02;;;;;;;8.43;6.90;;;17.00;99.90;;;;;;4984880;28;20513;-65
2023/08/30 02:02:31;;;;;;;8.57;6.80;;;16.90;99.90;;;;;;4996581;28;20481;-65
2023/08/30 02:04:58;;;;;;;8.87;7.00;;;16.90;99.90;;;;;;4997458;28;21191;-65
2023/08/30 02:07:34;;;;;;;9.27;7.27;;;16.80;99.90;;;;;;4988826;28;20585;-65
2023/08/30 02:10:07;;;;;;;12.70;7.73;;;16.70;99.90;;;;;;4976914;28;20491;-65
2023/08/30 02:12:40;;;;;;;10.47;7.30;;;16.70;99.90;;;;;;5008036;28;20485;-65
2023/08/30 02:15:09;;;;;;;7.93;6.40;;;16.70;99.90;;;;;;4990427;28;20473;-65
2023/08/30 02:17:38;;;;;;;9.03;7.17;;;16.70;99.90;;;;;;4991883;28;20495;-65
2023/08/30 02:20:07;;;;;;;8.27;6.73;;;16.70;99.90;;;;;;4981678;28;20490;-66
2023/08/30 02:22:34;;;;;;;8.37;7.10;;;16.50;99.90;;;;;;5003053;28;21026;-65
2023/08/30 02:25:04;;;;;;;8.43;6.90;;;16.40;99.90;;;;;;4986610;28;20523;-65
2023/08/30 02:27:31;;;;;;;10.07;6.50;;;16.40;99.90;;;;;;4992973;28;21052;-65
2023/08/30 02:29:58;;;;;;;7.57;6.33;;;16.30;99.90;;;;;;4991565;28;20478;-65
2023/08/30 02:32:25;;;;;;;7.53;6.00;;;16.30;99.90;;;;;;4988493;28;20675;-65
2023/08/30 02:34:54;;;;;;;9.70;6.97;;;16.30;99.90;;;;;;4993427;28;20474;-65
2023/08/30 02:37:21;;;;;;;7.63;6.80;;;16.30;99.90;;;;;;4990645;28;20883;-65
2023/08/30 02:39:48;;;;;;;6.93;5.50;;;16.30;99.90;;;;;;4985899;28;20489;-65
2023/08/30 02:42:15;;;;;;;7.80;5.70;;;16.30;99.90;;;;;;4994770;28;20545;-65
2023/08/30 02:44:41;;;;;;;6.30;5.70;;;16.30;99.90;;;;;;4998457;28;21100;-65
2023/08/30 02:47:08;;;;;;;6.80;5.30;;;16.20;99.90;;;;;;4987937;28;20473;-65
2023/08/30 02:49:35;;;;;;;7.47;6.40;;;16.00;99.90;;;;;;4984550;28;20492;-65
2023/08/30 02:52:04;;;;;;;7.93;5.60;;;15.90;99.90;;;;;;4982971;28;20480;-65
2023/08/30 02:54:32;;;;;;;7.60;5.97;;;16.00;99.90;;;;;;4986426;28;20913;-65
2023/08/30 02:56:59;;;;;;;8.60;6.33;;;15.90;99.90;;;;;;4991250;28;20488;-65
2023/08/30 02:59:26;;;;;;;9.03;6.13;;;15.90;99.90;;;;;;5000838;28;20552;-65
2023/08/30 03:01:53;;;;;;;6.90;6.03;;;15.90;99.90;;;;;;4991178;28;20488;-65
2023/08/30 03:04:20;;;;;;;6.70;5.33;;;15.80;99.90;;;;;;4986661;28;20465;-65
2023/08/30 03:06:47;;;;;;;18.23;5.30;;;15.80;99.90;;;;;;4988946;28;20473;-65
2023/08/30 03:09:15;;;;;;;7.70;6.00;;;15.70;99.90;;;;;;4993646;28;21128;-65
2023/08/30 03:11:42;;;;;;;9.20;5.17;;;15.60;99.90;;;;;;4980583;28;20482;-65
2023/08/30 03:14:08;;;;;;;8.70;5.87;;;15.40;99.90;;;;;;4985976;28;20482;-65
2023/08/30 03:16:35;;;;;;;6.63;5.77;;;15.30;99.90;;;;;;4994329;28;20581;-64
2023/08/30 03:19:03;;;;;;;6.27;5.47;;;15.30;99.90;;;;;;4996192;28;20497;-64
2023/08/30 03:21:30;;;;;;;8.67;6.20;;;15.30;99.90;;;;;;4989315;28;20986;-65
2023/08/30 03:23:58;;;;;;;12.83;5.33;;;15.20;99.90;;;;;;4988542;28;20493;-65
2023/08/30 03:26:26;;;;;;;7.83;6.10;;;15.20;99.90;;;;;;4984843;28;20476;-65
2023/08/30 03:28:53;;;;;;;5.87;5.07;;;15.20;99.90;;;;;;4988335;28;20499;-65
2023/08/30 03:31:21;;;;;;;7.33;5.20;;;15.30;99.90;;;;;;4995252;28;20492;-65
2023/08/30 03:33:49;;;;;;;7.33;5.43;;;15.20;99.90;;;;;;4995846;28;20496;-65
2023/08/30 03:36:18;;;;;;;7.00;5.73;;;15.30;99.90;;;;;;4990622;28;20856;-65
2023/08/30 03:38:46;;;;;;;7.27;6.00;;;15.30;99.90;;;;;;5001232;28;20980;-65
2023/08/30 03:41:13;;;;;;;6.93;6.23;;;15.30;99.90;;;;;;4989394;28;20860;-65
2023/08/30 03:43:42;;;;;;;8.67;6.10;;;15.20;99.90;;;;;;5003825;28;20481;-65
2023/08/30 03:46:11;;;;;;;9.23;6.60;;;15.00;99.90;;;;;;4989854;28;21017;-65
2023/08/30 03:48:38;;;;;;;9.70;7.40;;;14.80;99.90;;;;;;4989435;28;20474;-65
2023/08/30 03:51:05;;;;;;;12.43;7.87;;;14.60;99.90;;;;;;4988018;28;20495;-65
2023/08/30 03:53:32;;;;;;;11.70;8.20;;;14.40;99.90;;;;;;4990851;28;20482;-65
2023/08/30 03:55:59;;;;;;;9.00;7.10;;;14.30;99.90;;;;;;4996174;28;20470;-64
2023/08/30 03:58:26;;;;;;;7.40;6.67;;;14.20;99.90;;;;;;4987911;28;20480;-64
2023/08/30 04:00:54;;;;;;;7.90;6.70;;;14.20;99.90;;;;;;4987917;28;23471;-65
2023/08/30 04:03:21;;;;;;;12.37;6.83;;;14.20;99.90;;;;;;4987849;28;20512;-64
2023/08/30 04:05:48;;;;;;;7.67;4.93;;;14.30;99.90;;;;;;4994939;28;20852;-65
2023/08/30 04:08:15;;;;;;;6.80;5.17;;;14.30;99.90;;;;;;4986109;28;20478;-65
2023/08/30 04:10:43;;;;;;;8.40;5.90;;;14.50;99.90;;;;;;4989241;28;20511;-65
2023/08/30 04:13:10;;;;;;;7.77;6.30;;;14.60;99.90;;;;;;4985215;28;20540;-65
2023/08/30 04:15:38;;;;;;;11.33;7.00;;;14.70;99.90;;;;;;4989934;28;20559;-65
2023/08/30 04:18:07;;;;;;;12.30;7.30;;;14.70;99.90;;;;;;4994969;28;20490;-65
2023/08/30 04:20:35;;;;;;;7.17;6.33;;;14.70;99.90;;;;;;4993606;28;20490;-65
2023/08/30 04:23:03;;;;;;;8.90;7.33;;;14.70;99.90;;;;;;4993848;28;20921;-65
2023/08/30 04:25:30;;;;;;;10.23;7.40;;;14.60;99.90;;;;;;4990372;28;20481;-65
2023/08/30 04:27:57;;;;;;;10.47;7.57;;;14.60;99.90;;;;;;4983826;28;20616;-65
2023/08/30 04:30:24;;;;;;;8.70;6.07;;;14.50;99.90;;;;;;4992009;28;20481;-66
2023/08/30 04:32:51;;;;;;;7.57;6.47;;;14.60;99.90;;;;;;4987096;28;20479;-65
2023/08/30 04:35:19;;;;;;;8.77;6.00;;;14.60;99.90;;;;;;4985690;28;20487;-65
2023/08/30 04:37:46;;;;;;;8.37;6.17;;;14.70;99.90;;;;;;4992514;28;21067;-66
2023/08/30 04:40:13;;;;;;;12.13;6.20;;;14.80;99.90;;;;;;4997375;28;20855;-66
2023/08/30 04:42:40;;;;;;;9.57;7.30;;;14.80;99.90;;;;;;4989854;28;20486;-66
2023/08/30 04:45:09;;;;;;;7.97;6.53;;;14.80;99.90;;;;;;4987769;28;20473;-65
2023/08/30 04:47:36;;;;;;;7.63;5.80;;;14.80;99.90;;;;;;4992371;28;20593;-65
2023/08/30 04:50:03;;;;;;;7.17;5.60;;;14.80;99.90;;;;;;5009781;28;20556;-65
2023/08/30 04:52:32;;;;;;;9.03;6.27;;;14.90;99.90;;;;;;4993877;28;20471;-65
2023/08/30 04:54:59;;;;;;;8.57;6.03;;;14.70;99.90;;;;;;4987514;28;20553;-65
2023/08/30 04:57:26;;;;;;;9.07;7.40;;;14.60;99.90;;;;;;4993005;28;20543;-65
2023/08/30 04:59:53;;;;;;;7.30;6.03;;;14.40;99.90;;;;;;4989456;28;20486;-65
2023/08/30 05:02:19;;;;;;;10.77;7.23;;;14.20;99.90;;;;;;5001782;28;20979;-64
2023/08/30 05:04:46;;;;;;;9.97;7.37;;;14.10;99.90;;;;;;4987786;28;20484;-65
2023/08/30 05:07:13;;;;;;;9.40;6.50;;;14.00;99.90;;;;;;4993505;28;20485;-64
2023/08/30 05:09:42;;;;;;;7.97;6.40;;;14.00;99.90;;;;;;4981644;28;20501;-65
2023/08/30 05:12:09;;;;;;;6.80;5.80;;;14.20;99.90;;;;;;5007665;28;20480;-65
2023/08/30 05:14:36;;;;;;;8.53;6.37;;;14.30;99.90;;;;;;4991392;28;20584;-65
2023/08/30 05:17:03;;;;;;;8.77;6.90;;;14.40;99.90;;;;;;4998919;28;20553;-65
2023/08/30 05:19:30;;;;;;;8.57;7.00;;;14.50;99.90;;;;;;4984456;28;20477;-65
2023/08/30 05:21:57;;;;;;;10.77;7.20;;;14.50;99.90;;;;;;4980542;28;21598;-65
2023/08/30 05:24:24;;;;;;;9.60;7.60;;;14.50;99.90;;;;;;5000693;28;20508;-65
2023/08/30 05:26:52;;;;;;;8.33;7.30;;;14.50;99.90;;;;;;4988225;28;20518;-65
2023/08/30 05:29:19;;;;;;;10.37;7.20;;;14.50;99.90;;;;;;4992445;28;20491;-65
2023/08/30 05:31:46;;;;;;;12.87;7.90;;;14.50;99.90;;;;;;4995309;28;20862;-65
2023/08/30 05:34:12;;;;;;;13.70;8.20;;;14.50;99.90;;;;;;4986779;28;20487;-65
2023/08/30 05:36:39;;;;;;;8.77;7.77;;;14.50;99.90;;;;;;5000084;28;20486;-65
2023/08/30 05:39:07;;;;;;;11.67;7.37;;;14.50;99.90;;;;;;4986321;28;20855;-65
2023/08/30 05:41:34;;;;;;;11.13;6.67;;;14.50;99.90;;;;;;4984785;28;20481;-65
2023/08/30 05:44:02;;;;;;;12.80;9.03;;;14.50;99.90;;;;;;5002665;28;20480;-65
2023/08/30 05:46:29;;;;;;;8.90;7.30;;;14.50;99.90;;;;;;5000064;28;20492;-65
2023/08/30 05:48:56;;;;;;;8.40;6.43;;;14.50;99.90;;;;;;4988668;28;21133;-65
2023/08/30 05:51:23;;;;;;;9.40;7.20;;;14.60;99.90;;;;;;4986215;28;20489;-65
2023/08/30 05:53:49;;;;;;;10.17;7.43;;;14.80;99.90;;;;;;4994697;28;20514;-65
2023/08/30 05:56:17;;;;;;;14.17;9.37;;;14.90;99.90;;;;;;4989188;28;20481;-65
2023/08/30 05:58:44;;;;;;;15.83;8.60;;;15.00;99.90;;;;;;4995008;28;20484;-65
2023/08/30 06:01:12;;;;;;;12.43;8.10;;;14.90;99.90;;;;;;4997336;28;20828;-65
2023/08/30 06:03:39;;;;;;;14.03;8.97;;;14.90;99.90;;;;;;4996962;28;20488;-65
2023/08/30 06:06:06;;;;;;;11.07;8.63;;;14.90;99.90;;;;;;4979009;28;20533;-65
2023/08/30 06:08:33;;;;;;;12.17;8.70;;;14.90;99.90;;;;;;4993500;28;20564;-65
2023/08/30 06:11:00;;;;;;;9.47;7.90;;;15.00;99.90;;;;;;4990067;28;20481;-65
2023/08/30 06:13:27;;;;;;;11.30;8.90;;;15.10;99.90;;;;;;4999587;28;20507;-65
2023/08/30 06:15:54;;;;;;;13.50;9.07;;;15.10;99.90;;;;;;4990143;28;20500;-65
2023/08/30 06:18:22;;;;;;;14.23;8.80;;;15.20;99.90;;;;;;5002679;28;20874;-65
2023/08/30 06:20:50;;;;;;;11.33;8.83;;;15.30;99.90;;;;;;4983649;28;20486;-65
2023/08/30 06:23:20;;;;;;;10.23;8.10;;;15.40;99.90;;;;;;4987064;28;20478;-65
2023/08/30 06:25:54;;;;;;;11.73;9.20;;;15.60;99.90;;;;;;4982378;28;20482;-65
2023/08/30 06:28:22;;;;;;;11.97;9.67;;;15.70;99.90;;;;;;4992049;28;20482;-65
2023/08/30 06:30:50;;;;;;;11.83;8.97;;;15.70;99.90;;;;;;4981950;28;20487;-65
2023/08/30 06:33:17;;;;;;;14.70;10.27;;;15.70;99.90;;;;;;4992616;28;20858;-65
2023/08/30 06:35:48;;;;;;;12.87;9.03;;;15.70;99.90;;;;;;4983879;28;21132;-65
2023/08/30 06:38:15;;;;;;;10.53;9.30;;;15.70;99.90;;;;;;4986011;28;20490;-65
2023/08/30 06:40:45;;;;;;;12.23;8.87;;;15.80;99.90;;;;;;4987226;28;21165;-65
2023/08/30 06:43:11;;;;;;;11.93;9.50;;;15.90;99.90;;;;;;4996942;28;20483;-65
2023/08/30 06:45:39;;;;;;;15.37;10.50;;;16.00;99.90;;;;;;4987652;28;20476;-64
2023/08/30 06:48:08;;;;;;;14.70;10.73;;;16.10;99.90;;;;;;4985826;28;21301;-65
2023/08/30 06:50:35;;;;;;;12.77;10.23;;;16.30;99.90;;;;;;4993243;28;20473;-65
2023/08/30 06:53:04;;;;;;;18.53;11.70;;;16.60;99.90;;;;;;4989463;28;20600;-65
2023/08/30 06:55:31;;;;;;;13.83;10.97;;;16.70;99.90;;;;;;4993132;28;20486;-65
2023/08/30 06:57:58;;;;;;;16.70;12.20;;;16.80;99.90;;;;;;4978110;28;21034;-65
2023/08/30 07:00:25;;;;;;;14.13;9.93;;;16.90;99.90;;;;;;4986622;28;20514;-65
2023/08/30 07:02:52;;;;;;;11.93;9.17;;;16.90;99.90;;;;;;5002564;28;20901;-65
2023/08/30 07:05:19;;;;;;;12.60;9.47;;;16.90;99.90;;;;;;4993561;28;20565;-64
2023/08/30 07:07:46;;;;;;;13.50;9.80;;;17.00;99.90;;;;;;4986032;28;20477;-65
2023/08/30 07:10:14;;;;;;;12.77;8.73;;;16.90;99.90;;;;;;4983586;28;20488;-65
2023/08/30 07:12:41;;;;;;;12.40;7.57;;;16.90;99.90;;;;;;4997605;28;20465;-65
2023/08/30 07:15:09;;;;;;;10.70;8.47;;;16.90;99.90;;;;;;4988065;28;21038;-64
2023/08/30 07:17:36;;;;;;;10.00;8.20;;;16.70;99.90;;;;;;4989177;28;20489;-64
2023/08/30 07:20:04;;;;;;;10.47;8.50;;;16.80;99.90;;;;;;4979033;28;20493;-64
2023/08/30 07:22:31;;;;;;;12.03;9.63;;;16.80;99.90;;;;;;4998152;28;20481;-65
2023/08/30 07:24:58;;;;;;;10.57;9.47;;;16.80;99.90;;;;;;4995101;28;21090;-65
2023/08/30 07:27:28;;;;;;;15.17;10.43;;;16.90;99.90;;;;;;4992434;28;21010;-65
2023/08/30 07:29:55;;;;;;;15.30;11.43;;;16.90;99.90;;;;;;4989326;28;20478;-64
2023/08/30 07:32:22;;;;;;;18.00;12.43;;;17.00;99.90;;;;;;4999124;28;20582;-64
2023/08/30 07:34:49;;;;;;;21.17;12.50;;;17.10;99.90;;;;;;4997080;28;20487;-66
2023/08/30 07:37:20;;;;;;;17.87;13.40;;;17.10;99.90;;;;;;4988634;28;20463;-65
2023/08/30 07:39:47;;;;;;;15.50;11.73;;;17.20;99.90;;;;;;4989778;28;20470;-65
2023/08/30 07:42:15;;;;;;;19.50;15.10;;;17.20;99.90;;;;;;4991502;28;21491;-65
2023/08/30 07:44:43;;;;;;;19.53;14.40;;;17.20;99.90;;;;;;4990868;28;20484;-65
2023/08/30 07:47:10;;;;;;;22.60;14.27;;;17.20;99.90;;;;;;4992344;28;20515;-65
2023/08/30 07:49:37;;;;;;;16.60;13.17;;;17.30;99.90;;;;;;4991015;28;20995;-65
2023/08/30 07:52:05;;;;;;;19.87;15.20;;;17.40;99.90;;;;;;4991704;28;21190;-65
2023/08/30 07:54:32;;;;;;;17.87;14.77;;;17.60;99.90;;;;;;4988443;28;20490;-65
2023/08/30 07:56:59;;;;;;;16.03;14.13;;;17.80;99.90;;;;;;4991006;28;20476;-65
2023/08/30 07:59:27;;;;;;;18.20;14.33;;;17.80;99.90;;;;;;4988865;28;20470;-65
2023/08/30 08:01:55;;;;;;;17.57;13.17;;;17.80;99.90;;;;;;4987820;28;20486;-65
2023/08/30 08:04:22;;;;;;;18.10;14.60;;;17.70;99.90;;;;;;4989435;28;20501;-65
2023/08/30 08:06:49;;;;;;;18.50;14.57;;;17.80;99.90;;;;;;4984669;28;20484;-66
2023/08/30 08:09:17;;;;;;;21.33;14.27;;;17.80;99.90;;;;;;4990943;28;20710;-65
2023/08/30 08:11:45;;;;;;;20.23;14.73;;;17.80;99.90;;;;;;4981902;28;20910;-66
2023/08/30 08:14:12;;;;;;;20.63;17.63;;;17.80;99.90;;;;;;4980751;28;20610;-66
2023/08/30 08:16:39;;;;;;;21.73;14.70;;;17.70;99.90;;;;;;4988255;28;21199;-66
2023/08/30 08:19:07;;;;;;;20.87;14.93;;;17.80;99.90;;;;;;5001601;28;21659;-66
2023/08/30 08:21:34;;;;;;;21.30;15.50;;;18.00;99.90;;;;;;4989108;28;21061;-66
2023/08/30 08:24:01;;;;;;;22.40;15.57;;;18.20;99.90;;;;;;4990257;28;20573;-66
2023/08/30 08:26:28;;;;;;;26.70;16.87;;;18.30;99.90;;;;;;5001932;28;20503;-66
2023/08/30 08:28:55;;;;;;;21.10;15.57;;;18.60;99.90;;;;;;4991886;28;20488;-66
2023/08/30 08:31:22;;;;;;;18.77;14.43;;;18.80;99.90;;;;;;4985211;28;20508;-66
2023/08/30 08:34:05;;;;;;;19.20;16.17;;;19.10;99.90;;;;;;4997438;28;20479;-66
2023/08/30 08:36:33;;;;;;;18.30;14.43;;;19.20;99.90;;;;;;4986334;28;21106;-66
2023/08/30 08:39:00;;;;;;;18.23;13.87;;;19.20;99.90;;;;;;4987728;28;20578;-66
2023/08/30 08:41:35;;;;;;;19.13;13.63;;;19.40;99.90;;;;;;4990150;28;20976;-66
2023/08/30 08:44:02;;;;;;;18.70;15.70;;;19.40;99.90;;;;;;5010945;28;20900;-66
2023/08/30 08:46:31;;;;;;;17.70;13.83;;;19.60;99.90;;;;;;4989406;28;21121;-67
2023/08/30 08:48:58;;;;;;;20.23;14.00;;;19.40;99.90;;;;;;4985387;28;20485;-66
2023/08/30 08:51:25;;;;;;;15.97;12.90;;;19.40;99.90;;;;;;4993082;28;20484;-67
2023/08/30 08:53:56;;;;;;;18.70;15.10;;;19.50;99.90;;;;;;4994022;28;20698;-66
2023/08/30 08:56:23;;;;;;;15.50;13.20;;;19.20;99.90;;;;;;4979252;28;20477;-66
2023/08/30 08:58:50;;;;;;;18.10;14.67;;;19.20;99.90;;;;;;4985143;28;20916;-66
2023/08/30 09:01:17;;;;;;;16.50;13.20;;;19.30;99.90;;;;;;4988149;28;20978;-66
2023/08/30 09:03:44;;;;;;;13.30;11.97;;;19.50;99.90;;;;;;4992678;28;20585;-66
2023/08/30 09:06:11;;;;;;;16.00;12.57;;;19.70;99.90;;;;;;4982767;28;20459;-66
2023/08/30 09:08:38;;;;;;;16.17;13.47;;;19.60;99.90;;;;;;5011106;28;20470;-66
2023/08/30 09:11:06;;;;;;;12.73;11.30;;;19.40;99.90;;;;;;4996162;28;20828;-65
2023/08/30 09:13:33;;;;;;;12.87;11.17;;;19.30;99.90;;;;;;4995515;28;20484;-66
2023/08/30 09:16:00;;;;;;;12.70;11.40;;;19.40;99.90;;;;;;4998661;28;20481;-65
2023/08/30 09:18:27;;;;;;;10.53;9.30;;;19.50;99.90;;;;;;4987471;28;20488;-65
2023/08/30 09:20:54;;;;;;;13.30;10.30;;;19.60;99.90;;;;;;4994787;28;20474;-66
2023/08/30 09:23:24;;;;;;;10.17;9.17;;;19.70;99.90;;;;;;4999948;28;20553;-66
2023/08/30 09:25:56;;;;;;;9.47;8.07;;;19.80;99.90;;;;;;4976207;28;20477;-65
2023/08/30 09:28:24;;;;;;;7.90;7.20;;;19.90;99.90;;;;;;4973318;28;20470;-66
2023/08/30 09:30:51;;;;;;;11.40;8.27;;;20.30;99.90;;;;;;4987933;28;21237;-66
2023/08/30 09:33:21;;;;;;;9.70;7.20;;;20.40;99.90;;;;;;4991459;28;20480;-65
2023/08/30 09:35:48;;;;;;;6.93;6.33;;;20.60;99.90;;;;;;4990917;28;20488;-66
2023/08/30 09:38:18;;;;;;;10.20;7.10;;;20.60;99.30;;;;;;4995397;28;20440;-65
2023/08/30 09:40:45;;;;;;;6.90;6.30;;;20.60;99.90;;;;;;4989197;28;21738;-66
2023/08/30 09:43:13;;;;;;;6.23;5.63;;;20.40;99.80;;;;;;4999914;28;20481;-65
2023/08/30 09:45:41;;;;;;;6.53;5.90;;;20.50;99.40;;;;;;4990510;28;20483;-65
2023/08/30 09:48:09;;;;;;;6.40;5.80;;;20.60;98.20;;;;;;4984250;28;20607;-66
2023/08/30 09:50:37;;;;;;;8.40;5.13;;;20.80;98.80;;;;;;4989507;28;20502;-66
2023/08/30 09:53:08;;;;;;;4.67;4.27;;;20.90;98.50;;;;;;5002687;28;20486;-65
2023/08/30 09:55:36;;;;;;;5.67;4.90;;;21.10;98.30;;;;;;4983945;28;20842;-66
2023/08/30 09:58:04;;;;;;;4.80;4.40;;;21.30;97.20;;;;;;4983869;28;20449;-66
2023/08/30 10:00:31;;;;;;;5.40;4.90;;;21.40;97.50;;;;;;4994278;28;21064;-66
2023/08/30 10:03:01;;;;;;;6.07;4.93;;;21.70;97.00;;;;;;5001232;28;20493;-66
2023/08/30 10:05:30;;;;;;;5.40;4.90;;;21.50;96.60;;;;;;4993504;28;20501;-68
2023/08/30 10:07:57;;;;;;;6.30;5.70;;;21.30;96.90;;;;;;4984775;28;20557;-66
2023/08/30 10:10:24;;;;;;;8.07;5.60;;;21.20;96.00;;;;;;4996594;28;20534;-66
2023/08/30 10:12:52;;;;;;;5.37;4.93;;;21.20;96.90;;;;;;4988272;28;20456;-66
2023/08/30 10:15:22;;;;;;;4.87;4.30;;;21.20;98.10;;;;;;4986455;28;20529;-67
2023/08/30 10:17:53;;;;;;;8.60;4.70;;;21.30;97.40;;;;;;4993212;28;20490;-66
2023/08/30 10:20:21;;;;;;;4.40;4.00;;;21.40;96.70;;;;;;4982889;28;20478;-66
2023/08/30 10:22:50;;;;;;;6.23;4.30;;;21.50;95.90;;;;;;4985414;28;20808;-70
2023/08/30 10:25:21;;;;;;;5.50;4.33;;;21.70;96.80;;;;;;4989395;28;21123;-67
2023/08/30 10:27:50;;;;;;;5.43;4.93;;;21.80;96.50;;;;;;4980051;28;20452;-66
2023/08/30 10:30:19;;;;;;;4.17;3.77;;;21.80;97.00;;;;;;4976424;28;20465;-66
2023/08/30 10:32:46;;;;;;;4.67;3.93;;;22.00;96.30;;;;;;4991781;28;20510;-66
2023/08/30 10:35:14;;;;;;;12.17;5.97;;;22.00;96.70;;;;;;4989940;28;20476;-66
2023/08/30 10:37:42;;;;;;;6.17;3.50;;;21.70;95.60;;;;;;4991047;28;20485;-67
2023/08/30 10:40:10;;;;;;;5.70;4.17;;;21.80;97.40;;;;;;4988765;28;20492;-66
2023/08/30 10:42:38;;;;;;;6.77;4.17;;;21.50;95.70;;;;;;4991793;28;20656;-66
2023/08/30 10:45:07;;;;;;;8.07;5.53;;;21.50;97.10;;;;;;4990129;28;20943;-66
2023/08/30 10:47:37;;;;;;;5.60;4.40;;;21.30;96.00;;;;;;4989214;28;20486;-66
2023/08/30 10:50:06;;;;;;;4.83;3.93;;;21.40;96.40;;;;;;4989001;28;20494;-66
2023/08/30 10:52:33;;;;;;;5.17;3.90;;;21.30;96.30;;;;;;4991815;28;21296;-66
2023/08/30 10:55:09;;;;;;;7.47;4.77;;;21.50;96.90;;;;;;4988370;28;20559;-65
2023/08/30 10:57:36;;;;;;;4.57;4.17;;;21.60;95.70;;;;;;4986800;28;20453;-66
2023/08/30 11:00:09;;;;;;;5.67;4.53;;;21.70;95.30;;;;;;4990783;28;20887;-66
2023/08/30 11:02:37;;;;;;;5.67;4.80;;;21.90;96.70;;;;;;4981858;28;20453;-66
2023/08/30 11:05:06;;;;;;;6.13;4.03;;;22.00;96.60;;;;;;4991553;28;20798;-67
2023/08/30 11:07:33;;;;;;;4.87;4.30;;;22.00;95.60;;;;;;4992987;28;20474;-66
2023/08/30 11:10:00;;;;;;;7.17;4.83;;;22.10;95.60;;;;;;4977578;28;20481;-66
2023/08/30 11:12:29;;;;;;;4.53;4.13;;;22.10;95.50;;;;;;5003515;28;20494;-67
2023/08/30 11:14:57;;;;;;;4.63;4.17;;;21.90;95.90;;;;;;4988972;28;20460;-66
2023/08/30 11:17:24;;;;;;;7.10;3.40;;;21.80;95.50;;;;;;4986433;28;20484;-66
2023/08/30 11:19:52;;;;;;;6.37;4.57;;;21.90;97.10;;;;;;4990715;28;20466;-66
2023/08/30 11:22:20;;;;;;;6.33;3.90;;;21.50;94.60;;;;;;4988958;28;20474;-65
2023/08/30 11:24:48;;;;;;;5.77;4.10;;;21.50;95.80;;;;;;4992057;28;20551;-66
2023/08/30 11:27:17;;;;;;;4.20;3.80;;;21.40;95.50;;;;;;4988591;28;20469;-66
2023/08/30 11:29:46;;;;;;;5.83;4.93;;;21.50;97.10;;;;;;4990138;28;20524;-66
2023/08/30 11:32:12;;;;;;;4.80;4.13;;;21.70;97.50;;;;;;4989083;28;20464;-65
2023/08/30 11:34:39;;;;;;;4.50;3.90;;;21.80;95.50;;;;;;4992171;28;20992;-66
2023/08/30 11:37:06;;;;;;;3.73;3.33;;;22.10;97.20;;;;;;4988186;28;20479;-66
2023/08/30 11:39:33;;;;;;;7.37;4.13;;;22.40;97.30;;;;;;4980007;28;20540;-67
2023/08/30 11:42:00;;;;;;;4.37;3.93;;;22.60;95.60;;;;;;4992733;28;20469;-66
2023/08/30 11:44:29;;;;;;;7.43;3.53;;;22.40;94.80;;;;;;4992531;28;21398;-65
2023/08/30 11:47:01;;;;;;;4.20;3.67;;;22.60;95.30;;;;;;4989028;28;20452;-67
2023/08/30 11:49:29;;;;;;;4.00;3.60;;;22.70;94.60;;;;;;4989339;28;20484;-66
2023/08/30 11:51:58;;;;;;;3.93;3.33;;;22.70;95.30;;;;;;4989220;28;20866;-67
2023/08/30 11:54:26;;;;;;;4.13;2.80;;;22.50;94.60;;;;;;4991459;28;20456;-66
2023/08/30 11:56:53;;;;;;;5.70;2.80;;;22.40;94.30;;;;;;4989768;28;20503;-67
2023/08/30 11:59:21;;;;;;;3.27;2.47;;;22.10;92.90;;;;;;4994014;28;20881;-67
2023/08/30 12:01:49;;;;;;;3.70;3.20;;;22.20;94.00;;;;;;4999583;28;20463;-67
2023/08/30 12:04:18;;;;;;;7.50;3.57;;;22.10;93.80;;;;;;4992985;28;20484;-66
2023/08/30 12:06:51;;;;;;;3.80;2.80;;;22.40;94.00;;;;;;4995236;28;20905;-67
2023/08/30 12:09:21;;;;;;;6.03;3.40;;;22.50;94.30;;;;;;4991808;28;21161;-67
2023/08/30 12:11:47;;;;;;;4.67;3.87;;;22.50;92.90;;;;;;4994313;28;20457;-67
2023/08/30 12:14:14;;;;;;;5.97;3.93;;;22.40;93.40;;;;;;4990861;28;20457;-65
2023/08/30 12:16:41;;;;;;;4.10;3.47;;;22.20;94.10;;;;;;4995046;28;21305;-65
2023/08/30 12:19:10;;;;;;;6.90;2.77;;;22.30;94.70;;;;;;4990893;28;20476;-65
2023/08/30 12:21:42;;;;;;;4.30;3.47;;;22.30;94.70;;;;;;4997755;28;20485;-69
2023/08/30 12:24:10;;;;;;;4.60;3.23;;;22.40;94.20;;;;;;4982063;28;20459;-66
2023/08/30 12:26:38;;;;;;;3.30;2.70;;;22.40;94.30;;;;;;4982355;28;20511;-67
2023/08/30 12:29:05;;;;;;;3.67;3.07;;;22.50;94.70;;;;;;4991915;28;20828;-68
2023/08/30 12:31:32;;;;;;;5.43;4.27;;;22.60;94.90;;;;;;4994230;28;20902;-75
2023/08/30 12:33:59;;;;;;;4.10;3.13;;;22.60;93.60;;;;;;4992931;28;20847;-68
2023/08/30 12:36:26;;;;;;;5.63;3.40;;;22.70;92.30;;;;;;4991873;28;20477;-68
2023/08/30 12:38:54;;;;;;;4.87;3.60;;;22.60;92.50;;;;;;4994188;28;20493;-70
2023/08/30 12:41:23;;;;;;;4.67;3.57;;;22.70;93.10;;;;;;4995909;28;20460;-67
2023/08/30 12:43:51;;;;;;;4.50;3.47;;;22.60;93.90;;;;;;4993936;28;20786;-67